Time;durP1;ratioP1;P1;durP2;ratioP2;P2;SDS_P1;SDS_P2;PMS_P1;PMS_P2;Temp;Humidity;BMP_temperature;BMP_pressure;BME280_temperature;BME280_humidity;BME280_pressure;Samples;Min_cycle;Max_cycle;Signal;HPM_P1;HPM_P2
2020/12/06 00:01:41;;;;;;;20.67;15.90;;;;;;;3.37;100.00;96974.63;5090251;28;20594;-77
2020/12/06 00:04:09;;;;;;;21.70;16.20;;;;;;;3.43;100.00;96970.75;5092996;28;20697;-77
2020/12/06 00:06:37;;;;;;;20.60;15.77;;;;;;;3.44;100.00;96982.88;5092564;28;20573;-77
2020/12/06 00:09:07;;;;;;;20.63;16.17;;;;;;;3.48;100.00;96973.88;5090124;28;20214;-77
2020/12/06 00:11:34;;;;;;;16.30;13.27;;;;;;;3.52;100.00;96975.31;5085124;28;20190;-77
2020/12/06 00:14:01;;;;;;;17.27;14.67;;;;;;;3.56;100.00;96976.78;5087150;28;20190;-77
2020/12/06 00:16:29;;;;;;;18.63;15.43;;;;;;;3.53;100.00;96970.94;5092425;28;20336;-77
2020/12/06 00:18:56;;;;;;;22.17;18.37;;;;;;;3.58;100.00;96963.59;5084888;28;20312;-77
2020/12/06 00:21:27;;;;;;;25.93;20.73;;;;;;;3.47;100.00;96956.53;5086770;28;20516;-77
2020/12/06 00:23:54;;;;;;;24.33;20.40;;;;;;;3.31;100.00;96966.41;5083018;28;20204;-77
2020/12/06 00:26:23;;;;;;;25.70;20.20;;;;;;;3.23;100.00;96963.50;5081274;28;20685;-76
2020/12/06 00:28:51;;;;;;;19.10;15.17;;;;;;;3.29;100.00;96965.66;5089607;28;20201;-77
2020/12/06 00:31:18;;;;;;;17.60;14.77;;;;;;;3.45;100.00;96974.91;5092916;28;20194;-77
2020/12/06 00:33:46;;;;;;;15.63;12.37;;;;;;;3.56;100.00;96971.56;5092142;28;20223;-77
2020/12/06 00:36:14;;;;;;;16.17;13.23;;;;;;;3.62;100.00;96971.09;5093657;28;20202;-77
2020/12/06 00:38:42;;;;;;;23.37;18.77;;;;;;;3.61;100.00;96964.22;5087083;28;20218;-77
2020/12/06 00:41:11;;;;;;;24.90;20.03;;;;;;;3.58;100.00;96961.84;5098026;28;20278;-76
2020/12/06 00:43:40;;;;;;;25.43;20.53;;;;;;;3.29;100.00;96942.19;5094085;28;20202;-77
2020/12/06 00:46:08;;;;;;;29.60;20.97;;;;;;;3.16;100.00;96930.94;5092522;28;20549;-77
2020/12/06 00:48:35;;;;;;;28.30;21.83;;;;;;;3.23;100.00;96926.97;5075405;28;20200;-77
2020/12/06 00:51:04;;;;;;;28.93;22.33;;;;;;;3.15;100.00;96919.66;5091665;28;20216;-77
2020/12/06 00:53:34;;;;;;;29.37;22.13;;;;;;;3.04;100.00;96903.94;5088603;28;20212;-77
2020/12/06 00:56:03;;;;;;;27.40;21.53;;;;;;;2.90;100.00;96894.47;5091184;28;20198;-77
2020/12/06 00:58:33;;;;;;;32.67;23.63;;;;;;;2.90;100.00;96894.47;5090361;28;20272;-77
2020/12/06 01:01:00;;;;;;;28.93;21.87;;;;;;;2.98;100.00;96885.25;5092991;28;20187;-77
2020/12/06 01:03:28;;;;;;;33.83;23.10;;;;;;;2.90;100.00;96878.81;5092320;28;20189;-77
2020/12/06 01:05:55;;;;;;;24.90;17.73;;;;;;;3.08;100.00;96881.09;5092625;28;20682;-77
2020/12/06 01:08:22;;;;;;;28.23;21.37;;;;;;;3.27;100.00;96891.88;5092727;28;20915;-76
2020/12/06 01:10:49;;;;;;;21.03;16.30;;;;;;;3.41;100.00;96894.31;5092287;28;20194;-77
2020/12/06 01:13:16;;;;;;;29.50;22.73;;;;;;;3.23;100.00;96890.44;5092903;28;20184;-76
2020/12/06 01:15:43;;;;;;;29.87;21.53;;;;;;;3.04;100.00;96872.63;5091271;28;20281;-76
2020/12/06 01:18:11;;;;;;;30.80;22.83;;;;;;;2.92;100.00;96861.28;5091937;28;20217;-77
2020/12/06 01:20:38;;;;;;;27.27;20.80;;;;;;;3.05;100.00;96871.69;5091939;28;20196;-77
2020/12/06 01:23:05;;;;;;;27.57;19.60;;;;;;;3.20;100.00;96888.84;5092464;28;20195;-77
2020/12/06 01:25:32;;;;;;;20.43;16.03;;;;;;;3.27;100.00;96892.72;5089616;28;20274;-77
2020/12/06 01:28:00;;;;;;;21.63;16.50;;;;;;;3.15;100.00;96897.94;5087800;28;20552;-77
2020/12/06 01:30:27;;;;;;;19.10;14.20;;;;;;;3.33;100.00;96912.31;5087676;28;20180;-77
2020/12/06 01:32:54;;;;;;;28.07;22.27;;;;;;;3.33;100.00;96912.31;5092367;28;20285;-77
2020/12/06 01:35:22;;;;;;;27.23;19.97;;;;;;;3.35;100.00;96913.88;5092766;28;20580;-77
2020/12/06 01:37:50;;;;;;;21.23;16.33;;;;;;;3.32;100.00;96915.84;5090443;28;20599;-78
2020/12/06 01:40:17;;;;;;;26.73;20.40;;;;;;;3.29;100.00;96916.91;5082346;28;20195;-77
2020/12/06 01:42:44;;;;;;;27.13;19.90;;;;;;;3.34;100.00;96914.81;5092353;28;20237;-76
2020/12/06 01:45:12;;;;;;;22.07;17.40;;;;;;;3.45;100.00;96924.50;5091337;28;20233;-77
2020/12/06 01:47:39;;;;;;;21.97;16.80;;;;;;;3.53;100.00;96930.00;5086838;28;20520;-77
2020/12/06 01:50:07;;;;;;;19.57;14.93;;;;;;;3.55;100.00;96941.16;5090596;28;20180;-77
2020/12/06 01:52:36;;;;;;;26.37;20.43;;;;;;;3.37;100.00;96945.06;5091529;28;20193;-77
2020/12/06 01:55:03;;;;;;;21.77;17.20;;;;;;;3.45;100.00;96958.44;5091038;28;20187;-77
2020/12/06 01:57:31;;;;;;;20.63;16.53;;;;;;;3.45;100.00;96948.00;5090921;28;20227;-78
2020/12/06 01:59:58;;;;;;;27.23;20.90;;;;;;;3.08;100.00;96941.09;5079730;28;20193;-77
2020/12/06 02:02:25;;;;;;;28.33;20.93;;;;;;;2.92;100.00;96934.31;5091180;28;20271;-77
2020/12/06 02:04:53;;;;;;;30.03;22.67;;;;;;;2.84;100.00;96944.44;5086383;28;20191;-77
2020/12/06 02:07:20;;;;;;;32.00;24.07;;;;;;;2.88;100.00;96932.03;5091142;28;20195;-78
2020/12/06 02:09:48;;;;;;;33.43;23.73;;;;;;;3.04;100.00;96927.41;5091615;28;20251;-76
2020/12/06 02:12:15;;;;;;;36.33;25.33;;;;;;;2.92;100.00;96908.22;5091372;28;20207;-76
2020/12/06 02:14:42;;;;;;;35.70;24.67;;;;;;;2.83;100.00;96911.50;5089370;28;20193;-77
2020/12/06 02:17:09;;;;;;;34.00;24.60;;;;;;;2.83;100.00;96908.91;5090717;28;20190;-76
2020/12/06 02:19:36;;;;;;;26.20;20.47;;;;;;;2.97;100.00;96907.09;5090742;28;20195;-76
2020/12/06 02:22:04;;;;;;;26.63;21.00;;;;;;;3.06;100.00;96907.25;5089299;28;20204;-77
2020/12/06 02:24:31;;;;;;;37.03;25.90;;;;;;;2.95;100.00;96898.56;5090370;28;20218;-77
2020/12/06 02:26:59;;;;;;;34.40;25.47;;;;;;;2.79;100.00;96907.44;5090610;28;20276;-77
2020/12/06 02:29:26;;;;;;;38.63;25.50;;;;;;;2.71;100.00;96911.50;5091427;28;20189;-77
2020/12/06 02:31:53;;;;;;;37.10;25.70;;;;;;;2.73;100.00;96918.28;5071982;28;20288;-77
2020/12/06 02:34:20;;;;;;;37.40;26.30;;;;;;;2.80;100.00;96919.53;5070726;28;20196;-77
2020/12/06 02:36:47;;;;;;;37.77;25.97;;;;;;;2.82;100.00;96912.44;5084085;28;20196;-77
2020/12/06 02:39:15;;;;;;;38.57;26.00;;;;;;;2.71;100.00;96895.84;5090500;28;20188;-77
2020/12/06 02:41:44;;;;;;;42.33;26.67;;;;;;;2.64;100.00;96892.84;5088877;28;20678;-77
2020/12/06 02:44:12;;;;;;;37.17;25.23;;;;;;;2.58;100.00;96898.50;5081014;28;20320;-77
2020/12/06 02:46:40;;;;;;;38.90;25.57;;;;;;;2.50;100.00;96879.91;5088018;28;20236;-76
2020/12/06 02:49:08;;;;;;;41.80;27.03;;;;;;;2.38;100.00;96872.94;5090283;28;20283;-77
2020/12/06 02:51:36;;;;;;;44.40;28.97;;;;;;;2.34;100.00;96863.66;5090314;28;20302;-77
2020/12/06 02:54:03;;;;;;;43.17;28.27;;;;;;;2.33;100.00;96857.63;5090817;28;20201;-77
2020/12/06 02:56:31;;;;;;;48.57;28.70;;;;;;;2.35;100.00;96857.53;5088529;28;20581;-78
2020/12/06 02:58:58;;;;;;;39.77;24.80;;;;;;;2.48;100.00;96867.94;5087892;28;20197;-77
2020/12/06 03:01:27;;;;;;;50.30;29.63;;;;;;;2.49;100.00;96873.06;5090607;28;20212;-77
2020/12/06 03:03:56;;;;;;;52.43;29.60;;;;;;;2.26;100.00;96876.38;5088548;28;20198;-79
2020/12/06 03:06:24;;;;;;;54.23;30.03;;;;;;;2.32;100.00;96861.19;5089025;28;20221;-77
2020/12/06 03:08:51;;;;;;;45.90;26.53;;;;;;;2.39;100.00;96861.56;5094712;28;20196;-77
2020/12/06 03:11:18;;;;;;;50.80;30.67;;;;;;;2.52;100.00;96865.03;5094998;28;20223;-77
2020/12/06 03:13:46;;;;;;;55.87;31.23;;;;;;;2.38;100.00;96883.38;5093939;28;20291;-77
2020/12/06 03:16:13;;;;;;;55.47;30.87;;;;;;;2.32;100.00;96881.19;5091562;28;20637;-77
2020/12/06 03:18:40;;;;;;;54.90;31.70;;;;;;;2.32;100.00;96889.84;5090189;28;20668;-77
2020/12/06 03:21:08;;;;;;;52.50;30.73;;;;;;;2.24;100.00;96894.75;5083138;28;20260;-78
2020/12/06 03:23:35;;;;;;;60.50;31.70;;;;;;;2.25;100.00;96895.53;5081923;28;20185;-78
2020/12/06 03:26:02;;;;;;;58.80;31.87;;;;;;;2.21;100.00;96904.53;5089144;28;20653;-77
2020/12/06 03:28:29;;;;;;;55.97;31.43;;;;;;;2.38;100.00;96914.66;5093607;28;20246;-77
2020/12/06 03:30:57;;;;;;;59.97;30.20;;;;;;;2.17;100.00;96910.88;5105582;28;20318;-77
2020/12/06 03:33:25;;;;;;;56.90;29.07;;;;;;;2.14;100.00;96908.47;5091951;28;20271;-78
2020/12/06 03:35:52;;;;;;;62.97;31.70;;;;;;;2.00;100.00;96892.91;5089862;28;20216;-78
2020/12/06 03:38:19;;;;;;;68.00;32.37;;;;;;;2.09;100.00;96894.91;5091047;28;20196;-77
2020/12/06 03:40:46;;;;;;;63.17;31.93;;;;;;;2.19;100.00;96909.81;5093858;28;20207;-77
2020/12/06 03:43:14;;;;;;;63.03;31.93;;;;;;;2.21;100.00;96910.56;5094466;28;20185;-76
2020/12/06 03:45:41;;;;;;;60.33;30.67;;;;;;;2.20;100.00;96905.44;5093854;28;20563;-77
2020/12/06 03:48:09;;;;;;;70.07;31.80;;;;;;;2.09;100.00;96894.91;5104690;28;20291;-77
2020/12/06 03:50:36;;;;;;;62.73;31.70;;;;;;;2.18;100.00;96892.53;5093447;28;20555;-78
2020/12/06 03:53:03;;;;;;;61.93;31.07;;;;;;;2.14;100.00;96879.81;5085482;28;20283;-77
2020/12/06 03:55:30;;;;;;;75.27;33.30;;;;;;;2.09;100.00;96866.25;5092530;28;20188;-78
2020/12/06 03:57:57;;;;;;;67.17;33.10;;;;;;;2.17;100.00;96858.75;5093835;28;20197;-77
2020/12/06 04:00:25;;;;;;;53.80;28.40;;;;;;;2.36;100.00;96864.38;5088638;28;20193;-77
2020/12/06 04:02:52;;;;;;;58.17;30.77;;;;;;;2.41;100.00;96888.38;5093768;28;20189;-76
2020/12/06 04:05:20;;;;;;;57.90;30.10;;;;;;;2.46;100.00;96899.31;5090278;28;20198;-77
2020/12/06 04:07:48;;;;;;;66.07;32.37;;;;;;;2.19;100.00;96890.78;5073871;28;20664;-77
2020/12/06 04:10:16;;;;;;;64.60;31.90;;;;;;;2.10;100.00;96880.97;5072366;28;20554;-77
2020/12/06 04:12:44;;;;;;;66.83;32.03;;;;;;;2.18;100.00;96878.66;5080361;28;20185;-76
2020/12/06 04:15:11;;;;;;;59.20;30.80;;;;;;;2.06;100.00;96871.69;5073809;28;20548;-77
2020/12/06 04:17:39;;;;;;;66.23;32.47;;;;;;;2.01;100.00;96884.19;5093273;28;20203;-77
2020/12/06 04:20:07;;;;;;;65.63;32.27;;;;;;;2.10;100.00;96897.44;5093374;28;20192;-78
2020/12/06 04:22:35;;;;;;;63.00;32.07;;;;;;;2.27;100.00;96904.13;5093573;28;20200;-78
2020/12/06 04:25:02;;;;;;;56.47;31.10;;;;;;;2.12;100.00;96897.31;5092881;28;20193;-77
2020/12/06 04:27:29;;;;;;;51.97;30.17;;;;;;;2.03;100.00;96885.75;5086213;28;20248;-77
2020/12/06 04:29:56;;;;;;;61.27;32.27;;;;;;;2.15;100.00;96889.31;5087666;28;20529;-77
2020/12/06 04:32:23;;;;;;;54.90;30.40;;;;;;;2.26;100.00;96879.81;5117237;27;20192;-77
2020/12/06 04:34:50;;;;;;;48.33;29.07;;;;;;;2.16;100.00;96889.19;5093553;28;20200;-77
2020/12/06 04:37:17;;;;;;;49.63;28.43;;;;;;;2.24;100.00;96891.28;5090215;28;20209;-77
2020/12/06 04:39:45;;;;;;;49.37;28.57;;;;;;;2.25;100.00;96890.34;5093927;28;20558;-77
2020/12/06 04:42:12;;;;;;;51.37;29.50;;;;;;;2.18;100.00;96882.13;5093644;28;20185;-77
2020/12/06 04:44:40;;;;;;;50.90;29.37;;;;;;;2.25;100.00;96879.91;5092680;28;20220;-77
2020/12/06 04:47:14;;;;;;;47.53;27.90;;;;;;;2.22;100.00;96890.53;5083436;28;20269;-77
2020/12/06 04:49:45;;;;;;;43.07;24.83;;;;;;;2.45;100.00;96884.63;5106753;28;20615;-77
2020/12/06 04:52:15;;;;;;;52.07;29.40;;;;;;;2.53;100.00;96884.91;5092824;28;20208;-77
2020/12/06 04:54:44;;;;;;;47.23;28.90;;;;;;;2.28;100.00;96892.72;5093190;28;20189;-77
2020/12/06 04:57:12;;;;;;;44.07;26.17;;;;;;;2.49;100.00;96898.28;5092504;28;20207;-78
2020/12/06 04:59:43;;;;;;;46.10;27.00;;;;;;;2.39;100.00;96892.03;5093005;28;20638;-77
2020/12/06 05:02:11;;;;;;;40.73;24.53;;;;;;;2.62;100.00;96899.94;5092316;28;20188;-77
2020/12/06 05:04:43;;;;;;;36.93;22.50;;;;;;;2.65;100.00;96898.88;5086627;28;20182;-77
2020/12/06 05:07:10;;;;;;;45.30;27.47;;;;;;;2.72;100.00;96906.16;5092666;28;20216;-78
2020/12/06 05:09:38;;;;;;;38.70;23.20;;;;;;;2.82;100.00;96893.34;5092539;28;20192;-77
2020/12/06 05:12:05;;;;;;;33.70;21.37;;;;;;;2.85;100.00;96886.16;5093109;28;20511;-77
2020/12/06 05:14:33;;;;;;;45.37;30.00;;;;;;;2.76;100.00;96894.59;5092304;28;20199;-77
2020/12/06 05:17:01;;;;;;;45.57;29.13;;;;;;;2.69;100.00;96897.75;5091722;28;20227;-78
2020/12/06 05:19:28;;;;;;;42.70;27.07;;;;;;;2.74;100.00;96899.09;5091972;28;20355;-77
2020/12/06 05:21:56;;;;;;;41.03;24.80;;;;;;;2.74;100.00;96883.44;5092282;28;20193;-77
2020/12/06 05:24:24;;;;;;;45.60;29.07;;;;;;;2.68;100.00;96876.06;5091823;28;20196;-76
2020/12/06 05:26:51;;;;;;;39.30;25.10;;;;;;;2.69;100.00;96875.13;5091815;28;20221;-77
2020/12/06 05:29:18;;;;;;;38.93;24.97;;;;;;;2.68;100.00;96890.84;5091867;28;20287;-77
2020/12/06 05:31:47;;;;;;;38.93;24.07;;;;;;;2.82;100.00;96904.63;5092732;28;20192;-77
2020/12/06 05:34:14;;;;;;;37.87;24.90;;;;;;;2.88;100.00;96892.91;5092389;28;20270;-77
2020/12/06 05:36:43;;;;;;;31.67;20.80;;;;;;;2.90;100.00;96891.03;5092191;28;20193;-80
2020/12/06 05:39:10;;;;;;;34.43;23.03;;;;;;;2.93;100.00;96898.63;5092581;28;20193;-77
2020/12/06 05:41:37;;;;;;;35.13;24.23;;;;;;;2.85;100.00;96901.78;5080159;28;20636;-79
2020/12/06 05:44:05;;;;;;;38.10;23.57;;;;;;;2.80;100.00;96903.91;5079871;28;20192;-77
2020/12/06 05:46:34;;;;;;;30.50;19.97;;;;;;;2.92;100.00;96897.81;5088066;28;20218;-79
2020/12/06 05:49:04;;;;;;;26.87;17.80;;;;;;;3.00;100.00;96909.50;5089288;28;20651;-77
2020/12/06 05:51:32;;;;;;;38.10;25.63;;;;;;;2.98;100.00;96900.91;5092498;28;20194;-77
2020/12/06 05:53:59;;;;;;;38.40;25.07;;;;;;;2.86;100.00;96887.78;5090823;28;20661;-77
2020/12/06 05:56:27;;;;;;;33.83;23.77;;;;;;;2.68;100.00;96883.88;5072996;28;20201;-78
2020/12/06 05:58:54;;;;;;;39.97;25.70;;;;;;;2.48;100.00;96888.78;5079667;28;20198;-78
2020/12/06 06:01:22;;;;;;;34.57;23.10;;;;;;;2.66;100.00;96880.53;5084658;28;20197;-77
2020/12/06 06:03:50;;;;;;;29.40;19.37;;;;;;;2.74;100.00;96872.19;5084770;28;20205;-76
2020/12/06 06:06:26;;;;;;;37.50;24.97;;;;;;;2.82;100.00;96880.31;5085697;27;20769;-76
2020/12/06 06:08:55;;;;;;;38.43;25.83;;;;;;;2.91;100.00;96890.09;5084540;28;20606;-75
2020/12/06 06:11:24;;;;;;;38.10;23.93;;;;;;;2.98;100.00;96900.91;5071719;28;20186;-77
2020/12/06 06:13:54;;;;;;;29.57;18.93;;;;;;;3.06;100.00;96898.63;5034840;27;20682;-76
2020/12/06 06:16:22;;;;;;;29.70;20.57;;;;;;;3.11;100.00;96899.13;5084495;28;20200;-77
2020/12/06 06:18:50;;;;;;;27.57;18.20;;;;;;;3.17;100.00;96901.31;5074898;28;20197;-78
2020/12/06 06:21:20;;;;;;;39.27;24.90;;;;;;;3.06;100.00;96891.59;5073400;28;20801;-77
2020/12/06 06:23:51;;;;;;;40.33;26.73;;;;;;;3.00;100.00;96899.06;5079728;28;20570;-76
2020/12/06 06:26:20;;;;;;;39.57;25.37;;;;;;;2.89;100.00;96898.00;5079763;28;20217;-78
2020/12/06 06:28:47;;;;;;;41.13;26.27;;;;;;;2.67;100.00;96895.22;5084207;28;20216;-78
2020/12/06 06:31:15;;;;;;;43.03;25.70;;;;;;;2.85;100.00;96904.41;5069449;28;20206;-74
2020/12/06 06:33:43;;;;;;;29.10;20.37;;;;;;;3.01;100.00;96916.34;5091235;28;20200;-76
2020/12/06 06:36:11;;;;;;;32.33;20.67;;;;;;;3.13;100.00;96931.16;5084730;28;20198;-75
2020/12/06 06:38:39;;;;;;;31.97;20.77;;;;;;;3.18;100.00;96934.28;5080380;28;20262;-74
2020/12/06 06:41:08;;;;;;;27.60;17.93;;;;;;;3.25;100.00;96946.81;5077766;28;20217;-76
2020/12/06 06:43:35;;;;;;;33.50;20.03;;;;;;;3.28;100.00;96959.63;5083854;28;20246;-78
2020/12/06 06:46:14;;;;;;;28.27;18.40;;;;;;;3.30;100.00;96969.97;5077034;28;20249;-78
2020/12/06 06:48:44;;;;;;;23.17;16.63;;;;;;;3.35;100.00;96962.63;5077216;28;20261;-77
2020/12/06 06:51:18;;;;;;;40.53;25.60;;;;;;;3.31;100.00;96946.34;5081263;28;20205;-76
2020/12/06 06:53:45;;;;;;;30.53;18.37;;;;;;;3.34;100.00;96960.97;5083370;28;20499;-77
2020/12/06 06:56:17;;;;;;;26.97;18.70;;;;;;;3.35;100.00;96963.47;5075064;28;20239;-79
2020/12/06 06:58:47;;;;;;;32.43;21.00;;;;;;;3.19;100.00;96967.25;5075338;28;20747;-76
2020/12/06 07:01:19;;;;;;;24.67;17.50;;;;;;;3.24;100.00;96954.72;5084361;28;20214;-77
2020/12/06 07:03:48;;;;;;;40.50;26.37;;;;;;;3.14;100.00;96965.00;5074416;28;20211;-77
2020/12/06 07:06:48;;;;;;;31.47;20.90;;;;;;;3.21;100.00;96970.59;5080773;28;20476;-76
2020/12/06 07:09:21;;;;;;;37.73;24.10;;;;;;;3.25;100.00;96970.28;5018385;28;20660;-76
2020/12/06 07:11:50;;;;;;;29.17;18.73;;;;;;;3.18;100.00;96966.44;5031447;28;20202;-77
2020/12/06 07:14:17;;;;;;;29.43;18.67;;;;;;;3.28;100.00;96957.03;5049553;28;20874;-78
2020/12/06 07:16:44;;;;;;;29.63;18.40;;;;;;;3.37;100.00;96968.56;5083822;28;20654;-78
2020/12/06 07:19:11;;;;;;;27.47;18.83;;;;;;;3.43;100.00;96970.75;5075156;28;20447;-78
2020/12/06 07:21:38;;;;;;;41.93;25.10;;;;;;;3.34;100.00;96974.84;5065946;28;20219;-77
2020/12/06 07:24:05;;;;;;;43.67;26.80;;;;;;;3.15;100.00;96971.00;5080242;28;20229;-78
2020/12/06 07:26:32;;;;;;;42.50;26.87;;;;;;;3.08;100.00;96969.78;5066561;28;20269;-77
2020/12/06 07:29:00;;;;;;;32.50;19.97;;;;;;;3.21;100.00;96961.00;5075029;28;20569;-76
2020/12/06 07:31:28;;;;;;;33.33;20.10;;;;;;;3.07;100.00;96952.44;5084336;28;20618;-83
2020/12/06 07:33:55;;;;;;;42.20;22.77;;;;;;;3.11;100.00;96943.47;5083543;28;20209;-80
2020/12/06 07:36:24;;;;;;;34.37;19.50;;;;;;;3.26;100.00;96958.88;5085287;28;20276;-80
2020/12/06 07:38:51;;;;;;;32.47;17.93;;;;;;;3.36;100.00;96954.69;5083453;28;20204;-79
2020/12/06 07:41:18;;;;;;;42.90;23.17;;;;;;;3.28;100.00;96948.34;5098807;28;20704;-81
2020/12/06 07:43:45;;;;;;;47.13;24.73;;;;;;;3.32;100.00;96942.81;5084242;28;20203;-81
2020/12/06 07:46:17;;;;;;;46.43;24.03;;;;;;;3.35;100.00;96946.97;5083272;28;20228;-81
2020/12/06 07:48:47;;;;;;;43.30;22.83;;;;;;;3.43;100.00;96955.09;5081685;27;20262;-81
2020/12/06 07:51:24;;;;;;;50.33;23.90;;;;;;;3.31;100.00;96966.41;5084645;28;20206;-80
2020/12/06 07:53:53;;;;;;;35.30;18.13;;;;;;;3.37;100.00;96971.19;5078617;28;20724;-78
2020/12/06 07:56:22;;;;;;;34.97;17.40;;;;;;;3.41;100.00;96972.63;5099184;28;20279;-78
2020/12/06 07:59:17;;;;;;;31.30;15.50;;;;;;;3.50;100.00;96961.56;5085861;28;20516;-79
2020/12/06 08:01:47;;;;;;;38.80;18.63;;;;;;;3.48;100.00;96963.44;5084054;28;20250;-79
2020/12/06 08:04:22;;;;;;;29.13;15.33;;;;;;;3.54;100.00;96965.59;5080361;28;20215;-74
2020/12/06 08:06:52;;;;;;;35.87;18.57;;;;;;;3.59;100.00;96965.28;5087451;28;20231;-77
2020/12/06 08:09:24;;;;;;;26.23;14.20;;;;;;;3.61;100.00;96969.44;5077656;28;20237;-75
2020/12/06 08:11:53;;;;;;;42.80;20.17;;;;;;;3.51;100.00;96973.66;5085907;28;20202;-74
2020/12/06 08:14:21;;;;;;;40.10;18.53;;;;;;;3.54;100.00;96962.97;5066712;28;20247;-74
2020/12/06 08:16:56;;;;;;;29.07;15.37;;;;;;;3.55;100.00;96974.28;5082851;28;20655;-73
2020/12/06 08:19:25;;;;;;;45.40;20.77;;;;;;;3.48;100.00;96974.69;5085887;28;20224;-75
2020/12/06 08:21:57;;;;;;;36.20;18.97;;;;;;;3.54;100.00;96989.09;5086890;28;20309;-74
2020/12/06 08:24:26;;;;;;;43.17;20.57;;;;;;;3.46;100.00;96989.66;5078118;28;20236;-75
2020/12/06 08:26:53;;;;;;;32.47;17.67;;;;;;;3.55;100.00;96980.31;5084286;28;20249;-78
2020/12/06 08:29:35;;;;;;;40.10;19.83;;;;;;;3.52;100.00;96970.09;5086085;28;20290;-75
2020/12/06 08:32:05;;;;;;;45.47;22.27;;;;;;;3.49;100.00;96970.31;5083046;28;20204;-75
2020/12/06 08:34:32;;;;;;;37.50;18.33;;;;;;;3.57;100.00;96977.59;5085306;28;20238;-75
2020/12/06 08:37:16;;;;;;;73.90;33.90;;;;;;;3.56;100.00;96971.56;5086233;28;20248;-75
2020/12/06 08:39:44;;;;;;;47.00;24.17;;;;;;;3.53;100.00;96950.91;5082394;28;21056;-75
2020/12/06 08:42:16;;;;;;;37.70;20.27;;;;;;;3.63;100.00;96956.28;5095011;28;20220;-75
2020/12/06 08:44:54;;;;;;;36.60;18.17;;;;;;;3.66;100.00;96956.91;5082670;28;20236;-75
2020/12/06 08:47:24;;;;;;;29.63;15.67;;;;;;;3.73;100.00;96968.59;5085733;28;20655;-75
2020/12/06 08:50:11;;;;;;;33.47;17.27;;;;;;;3.73;100.00;96968.59;5085936;28;20210;-77
2020/12/06 08:52:38;;;;;;;26.07;14.47;;;;;;;3.81;100.00;96965.41;5086103;28;20862;-77
2020/12/06 08:55:25;;;;;;;32.03;16.43;;;;;;;3.83;100.00;96951.28;5081811;28;20633;-75
2020/12/06 08:57:53;;;;;;;32.53;15.47;;;;;;;3.85;100.00;96946.78;5098842;27;20286;-76
2020/12/06 09:00:20;;;;;;;35.07;17.73;;;;;;;3.64;100.00;96948.34;5091953;28;20286;-76
2020/12/06 09:02:48;;;;;;;35.77;17.60;;;;;;;3.63;100.00;96951.03;5092476;28;20217;-76
2020/12/06 09:05:16;;;;;;;32.90;16.50;;;;;;;3.74;100.00;96944.09;5091799;28;20216;-77
2020/12/06 09:07:43;;;;;;;40.17;18.47;;;;;;;3.89;100.00;96936.94;5092965;28;20222;-76
2020/12/06 09:10:10;;;;;;;37.00;18.60;;;;;;;3.79;100.00;96923.72;5092825;28;20208;-76
2020/12/06 09:12:37;;;;;;;33.37;16.70;;;;;;;3.85;100.00;96925.03;5090457;28;20220;-76
2020/12/06 09:15:06;;;;;;;30.97;17.17;;;;;;;3.87;100.00;96921.41;5078821;28;20632;-76
2020/12/06 09:17:34;;;;;;;27.83;14.17;;;;;;;4.02;100.00;96922.88;5088821;28;20269;-76
2020/12/06 09:20:03;;;;;;;28.83;14.50;;;;;;;4.09;100.00;96928.47;5085681;28;20537;-76
2020/12/06 09:22:30;;;;;;;29.57;13.23;;;;;;;4.09;100.00;96933.69;5072309;28;20192;-76
2020/12/06 09:24:57;;;;;;;25.90;14.30;;;;;;;4.10;100.00;96936.19;5005966;27;20233;-75
2020/12/06 09:27:24;;;;;;;33.07;16.20;;;;;;;4.01;100.00;96933.44;5026303;28;20239;-75
2020/12/06 09:32:17;;;;;;;28.13;14.43;;;;;;;4.03;100.00;96944.59;5090177;27;20517;-76
2020/12/06 09:34:44;;;;;;;31.60;15.57;;;;;;;4.07;100.00;96952.09;5125342;27;22334;-75
2020/12/06 09:37:11;;;;;;;27.97;14.93;;;;;;;3.94;100.00;96956.56;5088488;27;20318;-76
2020/12/06 09:41:12;;;;;;;25.07;13.53;;;;;;;4.04;100.00;96952.31;5108470;27;78729;-74
2020/12/06 09:45:47;;;;;;;26.50;13.93;;;;;;;3.96;100.00;96965.13;5004606;27;76939;-75
2020/12/06 09:48:43;;;;;;;24.23;11.00;;;;;;;4.03;100.00;96961.13;5103303;27;20496;-76
2020/12/06 09:51:11;;;;;;;28.77;15.07;;;;;;;4.01;100.00;96965.59;5065342;28;20751;-77
2020/12/06 09:53:38;;;;;;;27.37;14.20;;;;;;;3.99;100.00;96964.88;5070619;28;20742;-77
2020/12/06 09:56:05;;;;;;;19.80;11.70;;;;;;;3.96;100.00;96964.28;5076455;28;20684;-76
2020/12/06 09:58:33;;;;;;;31.00;16.57;;;;;;;4.04;100.00;96973.22;5080569;28;20708;-76
2020/12/06 10:01:00;;;;;;;24.70;13.63;;;;;;;4.02;100.00;96969.91;5067652;28;20229;-76
2020/12/06 10:03:27;;;;;;;25.97;14.60;;;;;;;3.99;100.00;96967.50;5070610;28;20203;-75
2020/12/06 10:05:55;;;;;;;29.90;16.70;;;;;;;4.02;100.00;96975.13;5074811;28;20469;-77
2020/12/06 10:08:27;;;;;;;25.00;15.37;;;;;;;4.04;100.00;96967.19;5086600;28;20224;-76
2020/12/06 10:10:54;;;;;;;24.20;15.53;;;;;;;4.05;100.00;96961.84;5073319;28;20620;-76
2020/12/06 10:13:21;;;;;;;24.27;14.30;;;;;;;4.06;100.00;96968.75;5075193;28;20975;-77
2020/12/06 10:15:48;;;;;;;21.57;13.43;;;;;;;4.10;100.00;96957.09;5019899;28;20237;-76
2020/12/06 10:18:15;;;;;;;24.67;15.03;;;;;;;4.01;100.00;96947.31;5082412;28;20241;-79
2020/12/06 10:20:42;;;;;;;23.93;13.27;;;;;;;4.09;100.00;96945.00;5105849;28;20292;-79
2020/12/06 10:23:11;;;;;;;25.07;14.57;;;;;;;3.96;100.00;96949.44;5093265;28;20267;-75
2020/12/06 10:25:38;;;;;;;26.10;14.50;;;;;;;4.02;100.00;96951.59;5082339;28;20200;-76
2020/12/06 10:28:05;;;;;;;24.83;15.13;;;;;;;4.12;100.00;96964.00;5092307;28;20298;-76
2020/12/06 10:30:32;;;;;;;22.20;13.03;;;;;;;4.19;100.00;96989.56;5106110;28;20669;-76
2020/12/06 10:32:59;;;;;;;26.80;14.77;;;;;;;4.06;100.00;96991.41;5108156;28;20202;-75
2020/12/06 10:35:26;;;;;;;25.60;14.23;;;;;;;4.17;100.00;96985.41;5104445;28;20925;-75
2020/12/06 10:37:54;;;;;;;23.27;14.27;;;;;;;4.10;100.00;96982.38;5087690;28;20202;-74
2020/12/06 10:40:22;;;;;;;25.00;15.87;;;;;;;4.07;100.00;96973.00;5087391;28;20288;-75
2020/12/06 10:42:49;;;;;;;23.37;14.20;;;;;;;4.13;100.00;96976.13;5083051;28;20536;-73
2020/12/06 10:45:16;;;;;;;29.27;17.83;;;;;;;4.13;100.00;96986.59;5083355;28;20197;-72
2020/12/06 10:47:44;;;;;;;24.90;14.67;;;;;;;4.21;100.00;96986.84;5069838;28;20594;-76
2020/12/06 10:50:11;;;;;;;26.90;15.93;;;;;;;4.13;100.00;96981.38;5075870;28;20316;-74
2020/12/06 10:52:38;;;;;;;26.47;16.30;;;;;;;4.13;100.00;96971.72;5083087;28;20247;-73
2020/12/06 10:55:05;;;;;;;24.43;14.27;;;;;;;4.21;100.00;96969.38;5084576;28;20203;-73
2020/12/06 10:57:33;;;;;;;25.83;16.57;;;;;;;4.09;100.00;96955.44;5076075;28;20280;-73
2020/12/06 11:00:00;;;;;;;28.33;15.60;;;;;;;4.14;100.00;96956.88;5062802;28;20205;-74
2020/12/06 11:02:28;;;;;;;24.90;14.13;;;;;;;4.15;100.00;96958.56;5071701;28;20248;-74
2020/12/06 11:04:56;;;;;;;19.20;12.33;;;;;;;4.20;100.00;96948.59;5063391;28;20201;-74
2020/12/06 11:07:24;;;;;;;18.10;13.27;;;;;;;4.19;100.00;96949.53;5064227;28;20550;-74
2020/12/06 11:09:51;;;;;;;21.47;14.43;;;;;;;4.19;100.00;96950.34;5080679;28;20210;-76
2020/12/06 11:12:18;;;;;;;26.43;16.00;;;;;;;4.22;100.00;96950.13;5061716;28;20190;-75
2020/12/06 11:14:46;;;;;;;25.57;16.03;;;;;;;4.30;100.00;96957.41;5059980;28;20218;-77
2020/12/06 11:17:13;;;;;;;22.77;14.93;;;;;;;4.26;100.00;96950.75;5056587;28;20242;-75
2020/12/06 11:19:40;;;;;;;23.07;15.00;;;;;;;4.38;100.00;96950.66;5083054;28;20216;-74
2020/12/06 11:22:07;;;;;;;23.37;15.93;;;;;;;4.35;100.00;96956.09;5070599;28;20200;-76
2020/12/06 11:24:35;;;;;;;23.10;15.27;;;;;;;4.34;100.00;96959.69;5067530;28;20203;-77
2020/12/06 11:27:02;;;;;;;21.27;14.77;;;;;;;4.34;100.00;96964.06;5053082;28;20694;-76
2020/12/06 11:29:29;;;;;;;21.53;15.40;;;;;;;4.18;100.00;96967.00;5050116;28;20210;-77